Time;durP1;ratioP1;P1;durP2;ratioP2;P2;SDS_P1;SDS_P2;PMS_P1;PMS_P2;Temp;Humidity;BMP_temperature;BMP_pressure;BME280_temperature;BME280_humidity;BME280_pressure;Samples;Min_cycle;Max_cycle;Signal;HPM_P1;HPM_P2
2023/01/12 00:01:28;;;;;;;47.23;24.70;;;1.90;99.90;;;;;;4228348;28;20693;-63
2023/01/12 00:03:29;;;;;;;45.30;22.97;;;1.80;99.90;;;;;;4230667;28;20919;-62
2023/01/12 00:05:33;;;;;;;42.20;22.97;;;1.90;99.90;;;;;;4229598;28;20272;-67
2023/01/12 00:07:34;;;;;;;43.60;23.93;;;1.90;99.90;;;;;;4230792;28;20771;-64
2023/01/12 00:09:35;;;;;;;39.47;21.97;;;1.90;99.90;;;;;;4226675;28;20263;-63
2023/01/12 00:11:38;;;;;;;38.20;21.00;;;2.00;99.90;;;;;;4229104;28;20272;-64
2023/01/12 00:13:39;;;;;;;37.50;20.70;;;2.00;99.90;;;;;;4229818;28;20301;-63
2023/01/12 00:18:00;;;;;;;41.57;21.57;;;2.00;99.90;;;;;;4229022;28;20309;-68
2023/01/12 00:20:01;;;;;;;37.40;19.50;;;2.00;99.90;;;;;;4230285;28;20720;-60
2023/01/12 00:22:10;;;;;;;37.33;21.03;;;2.00;99.90;;;;;;4229449;28;20272;-62
2023/01/12 00:24:12;;;;;;;37.20;19.73;;;1.90;99.90;;;;;;4229898;28;20609;-62
2023/01/12 00:26:13;;;;;;;37.67;19.87;;;1.90;99.90;;;;;;4228309;28;20295;-61
2023/01/12 00:28:14;;;;;;;37.27;20.20;;;1.90;99.90;;;;;;4230292;28;20299;-61
2023/01/12 00:30:15;;;;;;;36.50;22.20;;;1.90;99.90;;;;;;4229115;28;20260;-60
2023/01/12 00:32:19;;;;;;;41.63;22.70;;;1.90;99.90;;;;;;4230041;28;20271;-71
2023/01/12 00:34:20;;;;;;;38.63;20.27;;;1.90;99.90;;;;;;4229476;28;20325;-62
2023/01/12 00:36:21;;;;;;;40.73;20.53;;;1.90;99.90;;;;;;4229525;28;20372;-61
2023/01/12 00:38:23;;;;;;;37.23;20.30;;;1.90;99.90;;;;;;4229668;28;20252;-70
2023/01/12 00:40:24;;;;;;;32.40;18.60;;;1.90;99.90;;;;;;4229143;28;20264;-61
2023/01/12 00:47:06;;;;;;;29.73;17.30;;;2.00;99.90;;;;;;4229662;28;20357;-63
2023/01/12 00:49:07;;;;;;;28.50;16.37;;;2.00;99.90;;;;;;4228590;28;20279;-63
2023/01/12 00:51:09;;;;;;;34.27;17.97;;;2.00;99.90;;;;;;4229381;28;20272;-60
2023/01/12 00:53:10;;;;;;;32.23;15.93;;;2.00;99.90;;;;;;4228807;28;20650;-65
2023/01/12 00:55:11;;;;;;;30.80;15.53;;;2.00;99.90;;;;;;4229748;28;20264;-62
2023/01/12 00:57:13;;;;;;;29.47;16.30;;;2.00;99.90;;;;;;4228818;28;20268;-61
2023/01/12 00:59:14;;;;;;;29.40;16.60;;;2.00;99.90;;;;;;4229802;28;20697;-59
2023/01/12 01:01:15;;;;;;;32.73;17.07;;;1.90;99.90;;;;;;4228391;28;20260;-62
2023/01/12 01:03:17;;;;;;;38.70;19.80;;;1.90;99.90;;;;;;4229845;28;20305;-60
2023/01/12 01:05:18;;;;;;;33.07;19.27;;;1.80;99.90;;;;;;4228268;28;20702;-61
2023/01/12 01:07:20;;;;;;;32.87;17.23;;;1.80;99.90;;;;;;4229935;28;20329;-59
2023/01/12 01:09:21;;;;;;;31.10;15.87;;;1.70;99.90;;;;;;4228490;28;20336;-62
2023/01/12 01:11:22;;;;;;;29.27;16.20;;;1.70;99.90;;;;;;4229574;28;20298;-64
2023/01/12 01:13:23;;;;;;;33.60;17.03;;;1.70;99.90;;;;;;4227245;28;20256;-62
2023/01/12 01:15:24;;;;;;;38.47;18.50;;;1.70;99.90;;;;;;4228455;28;21339;-62
2023/01/12 01:17:27;;;;;;;41.20;18.73;;;1.60;99.90;;;;;;4228944;28;20318;-59
2023/01/12 01:19:28;;;;;;;37.67;19.20;;;1.60;99.90;;;;;;4228658;28;20256;-63
2023/01/12 01:21:29;;;;;;;36.17;18.47;;;1.60;99.90;;;;;;4229293;28;20256;-61
2023/01/12 01:23:33;;;;;;;34.60;17.50;;;1.60;99.90;;;;;;4228341;28;20311;-60
2023/01/12 01:25:34;;;;;;;37.90;18.80;;;1.60;99.90;;;;;;4229348;28;20264;-62
2023/01/12 01:27:36;;;;;;;32.73;17.57;;;1.60;99.90;;;;;;4227807;28;20292;-60
2023/01/12 01:29:37;;;;;;;39.27;20.20;;;1.50;99.90;;;;;;4228748;28;20353;-60
2023/01/12 01:31:38;;;;;;;39.23;19.97;;;1.50;99.90;;;;;;4228135;28;20313;-66
2023/01/12 01:33:40;;;;;;;40.07;18.10;;;1.50;99.90;;;;;;4229429;28;20757;-69
2023/01/12 01:35:41;;;;;;;37.57;19.13;;;1.50;99.90;;;;;;4227653;28;20317;-62
2023/01/12 01:37:42;;;;;;;36.67;20.03;;;1.50;99.90;;;;;;4228326;28;20593;-60
2023/01/12 01:39:43;;;;;;;33.17;18.90;;;1.50;99.90;;;;;;4227991;28;20317;-61
2023/01/12 01:41:46;;;;;;;32.83;17.80;;;1.40;99.90;;;;;;4227501;28;20824;-59
2023/01/12 01:43:51;;;;;;;38.10;19.93;;;1.40;99.90;;;;;;4228193;28;20662;-59
2023/01/12 01:46:13;;;;;;;37.53;19.03;;;1.40;99.90;;;;;;4228979;28;20785;-62
2023/01/12 01:48:16;;;;;;;34.53;19.47;;;1.40;99.90;;;;;;4227848;28;20330;-59
2023/01/12 01:50:25;;;;;;;34.17;18.00;;;1.30;99.90;;;;;;4228518;28;20654;-70
2023/01/12 01:52:38;;;;;;;34.17;19.83;;;1.40;99.90;;;;;;4227573;28;20268;-66
2023/01/12 01:54:45;;;;;;;38.80;20.57;;;1.30;99.90;;;;;;4227315;28;20349;-65
2023/01/12 01:56:47;;;;;;;32.13;17.83;;;1.40;99.90;;;;;;4227734;28;20290;-59
2023/01/12 01:58:54;;;;;;;31.33;18.00;;;1.30;99.90;;;;;;4228596;28;20619;-59
2023/01/12 02:00:56;;;;;;;36.63;19.27;;;1.40;99.90;;;;;;4227918;28;20341;-71
2023/01/12 02:03:01;;;;;;;33.03;17.77;;;1.40;99.90;;;;;;4228414;28;20743;-72
2023/01/12 02:05:03;;;;;;;36.50;19.83;;;1.40;99.90;;;;;;4228139;28;20252;-71
2023/01/12 02:07:05;;;;;;;34.43;19.37;;;1.50;99.90;;;;;;4227738;28;20858;-72
2023/01/12 02:09:16;;;;;;;36.87;19.33;;;1.50;99.90;;;;;;4228345;28;20693;-59
2023/01/12 02:16:20;;;;;;;33.77;18.13;;;1.50;99.90;;;;;;4227321;28;20686;-60
2023/01/12 02:18:30;;;;;;;32.37;17.37;;;1.60;99.90;;;;;;4226066;28;20260;-61
2023/01/12 02:20:47;;;;;;;31.35;17.42;;;1.50;99.90;;;;;;4228345;28;20284;-59
2023/01/12 02:23:19;;;;;;;35.23;18.30;;;1.50;99.90;;;;;;4224480;28;20027;-60
2023/01/12 02:25:38;;;;;;;35.97;18.30;;;1.50;99.90;;;;;;4228468;28;20313;-59
2023/01/12 02:28:11;;;;;;;34.10;18.30;;;1.50;99.90;;;;;;4227319;28;20284;-60
2023/01/12 02:30:39;;;;;;;36.73;18.57;;;1.50;99.90;;;;;;4227888;28;20796;-61
2023/01/12 02:33:09;;;;;;;34.70;19.27;;;1.50;99.90;;;;;;4226949;28;20290;-60
2023/01/12 02:35:29;;;;;;;45.28;22.20;;;1.40;99.90;;;;;;4209076;28;20345;-70
2023/01/12 02:37:56;;;;;;;42.10;22.20;;;1.30;99.90;;;;;;4227869;28;20089;-61
2023/01/12 02:40:09;;;;;;;39.77;20.23;;;1.20;99.90;;;;;;4226691;28;20833;-61
2023/01/12 02:42:40;;;;;;;39.63;20.60;;;1.20;99.90;;;;;;4228255;28;20268;-71
2023/01/12 02:44:55;;;;;;;39.90;21.50;;;1.20;99.90;;;;;;4227519;28;20309;-59
2023/01/12 02:46:59;;;;;;;41.30;21.63;;;1.20;99.90;;;;;;4228398;28;20739;-67
2023/01/12 02:49:08;;;;;;;41.07;21.83;;;1.20;99.90;;;;;;4226926;28;20305;-60
2023/01/12 02:51:19;;;;;;;44.07;22.03;;;1.30;99.90;;;;;;4227493;28;20274;-71
2023/01/12 02:53:28;;;;;;;37.33;20.60;;;1.30;99.90;;;;;;4226758;28;20276;-58
2023/01/12 02:55:31;;;;;;;37.90;21.13;;;1.30;99.90;;;;;;4227984;28;20359;-59
2023/01/12 02:57:35;;;;;;;39.50;20.63;;;1.40;99.90;;;;;;4227135;28;20260;-58
2023/01/12 02:59:40;;;;;;;40.30;20.53;;;1.50;99.90;;;;;;4228089;28;20260;-59
2023/01/12 03:01:43;;;;;;;36.07;21.20;;;1.50;99.90;;;;;;4226847;28;20276;-58
2023/01/12 03:03:46;;;;;;;46.33;22.93;;;1.60;99.90;;;;;;4227812;28;20619;-63
2023/01/12 03:05:47;;;;;;;42.47;22.50;;;1.60;99.90;;;;;;4226892;28;20256;-63
2023/01/12 03:07:57;;;;;;;40.53;22.27;;;1.70;99.90;;;;;;4227466;28;20713;-60
2023/01/12 03:10:20;;;;;;;40.87;20.73;;;1.70;99.90;;;;;;4225819;28;20853;-61
2023/01/12 03:12:42;;;;;;;36.83;19.97;;;1.70;99.90;;;;;;4227626;28;20318;-66
2023/01/12 03:14:47;;;;;;;38.93;21.10;;;1.80;99.90;;;;;;4227296;28;20736;-70
2023/01/12 03:16:50;;;;;;;33.43;19.77;;;1.80;99.90;;;;;;4227874;28;20325;-70
2023/01/12 03:19:02;;;;;;;32.83;18.60;;;1.80;99.90;;;;;;4225963;28;20349;-60
2023/01/12 03:21:11;;;;;;;35.87;19.00;;;1.80;99.90;;;;;;4226049;28;20614;-59
2023/01/12 03:23:33;;;;;;;29.07;17.10;;;1.80;99.90;;;;;;4226833;28;20661;-64
2023/01/12 03:25:37;;;;;;;36.70;18.70;;;1.80;99.90;;;;;;4227782;28;20260;-68
2023/01/12 03:27:42;;;;;;;36.27;19.03;;;1.80;99.90;;;;;;4226414;28;20291;-65
2023/01/12 03:29:49;;;;;;;35.20;19.43;;;1.90;99.90;;;;;;4227510;28;20260;-67
2023/01/12 03:31:50;;;;;;;32.83;18.27;;;1.90;99.90;;;;;;4226873;28;20328;-61
2023/01/12 03:33:52;;;;;;;34.40;17.80;;;1.90;99.90;;;;;;4227552;28;20272;-66
2023/01/12 03:36:47;;;;;;;33.30;17.07;;;2.00;99.90;;;;;;4226265;28;20333;-58
2023/01/12 03:39:19;;;;;;;28.23;15.90;;;2.00;99.90;;;;;;4192029;28;20297;-60
2023/01/12 03:41:35;;;;;;;34.17;19.40;;;2.00;99.90;;;;;;4219058;28;20272;-65
2023/01/12 03:43:52;;;;;;;30.17;15.97;;;2.00;99.90;;;;;;4227866;28;20377;-59
2023/01/12 03:45:59;;;;;;;31.70;15.33;;;2.10;99.90;;;;;;4226833;28;20767;-67
2023/01/12 03:48:26;;;;;;;32.33;17.63;;;2.10;99.90;;;;;;4227901;28;20292;-66
2023/01/12 03:50:33;;;;;;;30.90;16.47;;;2.10;99.90;;;;;;4226323;28;20272;-60
2023/01/12 03:52:37;;;;;;;29.63;17.80;;;2.20;99.90;;;;;;4227603;28;20276;-58
2023/01/12 03:54:39;;;;;;;28.27;16.50;;;2.20;99.90;;;;;;4226005;28;20268;-61
2023/01/12 03:56:43;;;;;;;27.40;16.30;;;2.20;99.90;;;;;;4227448;28;20268;-62
2023/01/12 03:58:45;;;;;;;23.93;14.70;;;2.30;99.90;;;;;;4226682;28;20732;-60
2023/01/12 04:00:46;;;;;;;23.20;14.73;;;2.30;99.90;;;;;;4228965;28;20758;-69
2023/01/12 04:02:47;;;;;;;25.57;14.27;;;2.30;99.90;;;;;;4229244;28;20325;-61
2023/01/12 04:04:50;;;;;;;22.50;12.80;;;2.40;99.90;;;;;;4230574;28;20340;-60
2023/01/12 04:06:51;;;;;;;30.50;15.00;;;2.40;99.90;;;;;;4229428;28;20268;-60
2023/01/12 04:08:52;;;;;;;30.90;15.47;;;2.40;99.90;;;;;;4230287;28;20268;-62
2023/01/12 04:10:53;;;;;;;27.43;15.67;;;2.40;99.90;;;;;;4229376;28;20313;-59
2023/01/12 04:12:54;;;;;;;24.63;13.17;;;2.50;99.90;;;;;;4229723;28;20272;-61
2023/01/12 04:14:56;;;;;;;21.07;12.20;;;2.50;99.90;;;;;;4229869;28;20256;-66
2023/01/12 04:16:57;;;;;;;21.03;11.73;;;2.60;99.90;;;;;;4229971;28;20324;-70
2023/01/12 04:18:58;;;;;;;20.80;10.67;;;2.60;99.90;;;;;;4229973;28;20869;-62
2023/01/12 04:20:59;;;;;;;19.03;10.70;;;2.60;99.90;;;;;;4229117;28;20264;-64
2023/01/12 04:23:00;;;;;;;19.53;11.33;;;2.70;99.90;;;;;;4228225;28;20905;-60
2023/01/12 04:25:02;;;;;;;17.83;10.77;;;2.70;99.90;;;;;;4228802;28;20263;-59
2023/01/12 04:27:03;;;;;;;21.40;10.93;;;2.80;99.90;;;;;;4230407;28;20341;-63
2023/01/12 04:29:04;;;;;;;17.43;10.37;;;2.80;99.90;;;;;;4229184;28;20264;-54
2023/01/12 04:31:05;;;;;;;17.53;10.57;;;2.80;99.90;;;;;;4229887;28;20325;-62
2023/01/12 04:33:08;;;;;;;17.13;9.83;;;2.80;99.90;;;;;;4229101;28;20348;-60
2023/01/12 04:35:11;;;;;;;19.03;10.83;;;2.90;99.90;;;;;;4230073;28;20366;-61
2023/01/12 04:37:12;;;;;;;16.20;9.30;;;2.90;99.90;;;;;;4228565;28;20272;-57
2023/01/12 04:39:13;;;;;;;16.73;10.13;;;2.90;99.90;;;;;;4229774;28;20313;-58
2023/01/12 04:41:14;;;;;;;20.23;9.20;;;3.00;99.90;;;;;;4228506;28;20670;-60
2023/01/12 04:43:15;;;;;;;19.50;10.13;;;3.00;99.90;;;;;;4229916;28;20268;-64
2023/01/12 04:45:17;;;;;;;17.10;9.17;;;3.10;99.90;;;;;;4229462;28;20313;-60
2023/01/12 04:47:18;;;;;;;17.53;10.10;;;3.10;99.90;;;;;;4229498;28;20325;-59
2023/01/12 04:49:19;;;;;;;21.73;10.13;;;3.10;99.90;;;;;;4229386;28;20673;-58
2023/01/12 04:51:20;;;;;;;15.77;8.37;;;3.10;99.90;;;;;;4228726;28;20317;-61
2023/01/12 04:53:23;;;;;;;21.70;9.87;;;3.20;99.90;;;;;;4229185;28;20338;-60
2023/01/12 04:55:24;;;;;;;18.10;10.53;;;3.20;99.90;;;;;;4228544;28;20325;-61
2023/01/12 04:57:25;;;;;;;15.10;8.90;;;3.20;99.90;;;;;;4228042;28;20313;-68
2023/01/12 04:59:28;;;;;;;12.93;8.07;;;3.30;99.90;;;;;;4227770;28;20276;-66
2023/01/12 05:01:29;;;;;;;15.63;8.17;;;3.30;99.90;;;;;;4229116;28;20261;-61
2023/01/12 05:03:30;;;;;;;15.47;9.30;;;3.30;99.90;;;;;;4228486;28;20267;-61
2023/01/12 05:05:32;;;;;;;12.27;7.93;;;3.30;99.90;;;;;;4229512;28;20674;-61
2023/01/12 05:07:34;;;;;;;16.37;9.67;;;3.40;99.90;;;;;;4228121;28;21140;-60
2023/01/12 05:11:54;;;;;;;11.97;8.20;;;3.50;99.90;;;;;;4227903;28;20329;-61
2023/01/12 05:13:56;;;;;;;13.87;8.97;;;3.50;99.90;;;;;;4228519;28;20276;-65
2023/01/12 05:16:09;;;;;;;14.57;8.73;;;3.50;99.90;;;;;;4227770;28;20267;-60
2023/01/12 05:18:10;;;;;;;16.73;9.67;;;3.50;99.90;;;;;;4217819;28;20289;-62
2023/01/12 05:20:11;;;;;;;17.60;9.27;;;3.60;99.90;;;;;;4224604;28;20279;-60
2023/01/12 05:22:12;;;;;;;20.67;8.97;;;3.60;99.90;;;;;;4228406;27;20325;-61
2023/01/12 05:24:13;;;;;;;15.17;9.53;;;3.60;99.90;;;;;;4221333;28;20327;-61
2023/01/12 05:26:15;;;;;;;19.73;11.10;;;3.60;99.90;;;;;;4219855;28;20271;-62
2023/01/12 05:28:16;;;;;;;26.70;13.27;;;3.70;99.90;;;;;;4226398;28;20295;-61
2023/01/12 05:30:17;;;;;;;52.67;25.13;;;3.70;99.90;;;;;;4228580;28;20267;-61
2023/01/12 05:32:18;;;;;;;46.60;25.67;;;3.70;99.90;;;;;;4228351;28;20810;-63
2023/01/12 05:34:19;;;;;;;70.03;38.03;;;3.70;99.90;;;;;;4225336;28;20264;-64
2023/01/12 05:36:20;;;;;;;66.53;36.80;;;3.70;99.90;;;;;;4228034;27;20276;-61
2023/01/12 05:38:22;;;;;;;48.30;29.03;;;3.80;99.90;;;;;;4226965;28;20325;-61
2023/01/12 05:40:23;;;;;;;27.40;16.27;;;3.80;99.90;;;;;;4228604;28;20345;-62
2023/01/12 05:44:44;;;;;;;24.63;13.23;;;3.80;99.90;;;;;;4228991;28;20309;-63
2023/01/12 05:46:45;;;;;;;26.97;14.10;;;3.80;99.90;;;;;;4227970;28;20757;-61
2023/01/12 05:48:47;;;;;;;22.10;13.00;;;3.80;99.90;;;;;;4228817;28;20348;-61
2023/01/12 05:50:48;;;;;;;42.97;20.67;;;3.80;99.90;;;;;;4227556;28;20272;-61
2023/01/12 05:52:52;;;;;;;29.03;13.53;;;3.80;99.90;;;;;;4229157;28;20657;-61
2023/01/12 05:54:53;;;;;;;19.87;11.63;;;3.80;99.90;;;;;;4227615;28;20336;-66
2023/01/12 05:56:54;;;;;;;24.53;12.40;;;3.80;99.90;;;;;;4228635;28;20329;-61
2023/01/12 05:58:58;;;;;;;25.87;12.87;;;3.80;99.90;;;;;;4227256;28;20666;-60
2023/01/12 06:00:59;;;;;;;21.50;11.33;;;3.80;99.90;;;;;;4227551;28;20351;-64
2023/01/12 06:03:01;;;;;;;18.93;11.53;;;3.80;99.90;;;;;;4227806;28;20268;-61
2023/01/12 06:05:04;;;;;;;21.37;11.67;;;3.80;99.90;;;;;;4228037;28;20271;-61
2023/01/12 06:07:05;;;;;;;24.70;13.93;;;3.80;99.90;;;;;;4227895;28;20252;-61
2023/01/12 06:09:06;;;;;;;21.67;11.93;;;3.80;99.90;;;;;;4227466;28;20314;-60
2023/01/12 06:13:55;;;;;;;19.53;11.33;;;3.80;99.90;;;;;;4228212;28;20271;-62
2023/01/12 06:15:48;;;;;;;23.17;12.57;;;3.90;99.90;;;;;;4227676;28;20337;-64
2023/01/12 06:17:49;;;;;;;30.17;14.57;;;3.90;99.90;;;;;;4227537;28;20024;-60
2023/01/12 06:19:50;;;;;;;25.00;15.17;;;3.80;99.90;;;;;;4227870;28;20272;-60
2023/01/12 06:21:53;;;;;;;36.00;17.30;;;3.90;99.90;;;;;;4227360;28;20256;-59
2023/01/12 06:23:54;;;;;;;34.97;19.63;;;3.90;99.90;;;;;;4228020;28;20333;-61
2023/01/12 06:25:58;;;;;;;33.77;17.83;;;3.90;99.90;;;;;;4227294;28;20264;-61
2023/01/12 06:27:59;;;;;;;32.73;18.43;;;3.90;99.90;;;;;;4228107;28;20709;-60
2023/01/12 06:30:01;;;;;;;32.93;16.13;;;3.90;99.90;;;;;;4226735;28;20267;-63
2023/01/12 06:32:02;;;;;;;27.50;15.20;;;4.00;99.90;;;;;;4209373;28;20264;-60
2023/01/12 06:34:03;;;;;;;24.53;13.53;;;4.00;99.90;;;;;;4226377;28;20272;-61
2023/01/12 06:36:05;;;;;;;28.93;15.77;;;4.00;99.90;;;;;;4228202;28;20276;-61
2023/01/12 06:38:06;;;;;;;30.60;15.00;;;4.00;99.90;;;;;;4226909;28;20325;-60
2023/01/12 06:40:08;;;;;;;35.00;18.57;;;4.10;99.90;;;;;;4227601;28;20662;-63
2023/01/12 06:42:27;;;;;;;34.73;19.43;;;4.10;99.90;;;;;;4226847;28;20585;-61
2023/01/12 06:44:28;;;;;;;51.57;26.17;;;4.10;99.90;;;;;;4227792;28;20324;-61
2023/01/12 06:46:29;;;;;;;27.93;15.67;;;4.10;99.90;;;;;;4226876;28;20313;-61
2023/01/12 06:48:30;;;;;;;22.33;13.30;;;4.10;99.90;;;;;;4227620;28;20288;-61
2023/01/12 06:50:32;;;;;;;31.33;16.00;;;4.20;99.90;;;;;;4227002;28;20260;-61
2023/01/12 06:52:34;;;;;;;37.23;16.83;;;4.20;99.90;;;;;;4227570;28;20256;-61
2023/01/12 06:54:35;;;;;;;28.10;14.87;;;4.20;99.90;;;;;;4227495;28;20760;-60
2023/01/12 06:56:36;;;;;;;27.97;13.57;;;4.30;99.90;;;;;;4221318;28;20352;-60
2023/01/12 06:58:37;;;;;;;52.93;27.17;;;4.30;99.90;;;;;;4224771;28;20317;-61
2023/01/12 07:00:38;;;;;;;30.97;16.23;;;4.30;99.90;;;;;;4226031;28;20264;-62
2023/01/12 07:02:39;;;;;;;27.47;14.83;;;4.30;99.90;;;;;;4225800;28;20264;-61
2023/01/12 07:04:41;;;;;;;27.43;15.20;;;4.30;99.90;;;;;;4225166;28;20264;-62
2023/01/12 07:06:42;;;;;;;30.33;15.50;;;4.30;99.90;;;;;;4227042;28;20817;-62
2023/01/12 07:08:43;;;;;;;32.97;17.17;;;4.40;99.90;;;;;;4226432;28;20291;-61
2023/01/12 07:10:45;;;;;;;24.27;13.40;;;4.40;99.90;;;;;;4224816;28;20684;-60
2023/01/12 07:12:46;;;;;;;27.07;14.80;;;4.40;99.90;;;;;;4225321;28;20299;-62
2023/01/12 07:14:47;;;;;;;26.10;14.90;;;4.40;99.90;;;;;;4227653;28;20833;-61
2023/01/12 07:16:48;;;;;;;24.23;12.50;;;4.40;99.90;;;;;;4226645;28;20252;-61
2023/01/12 07:18:49;;;;;;;22.47;12.27;;;4.40;99.90;;;;;;4226034;28;20679;-61
2023/01/12 07:20:52;;;;;;;35.27;17.07;;;4.40;99.90;;;;;;4226738;28;20260;-63
2023/01/12 07:22:54;;;;;;;25.87;14.17;;;4.40;99.90;;;;;;4227716;28;20085;-63
2023/01/12 07:24:55;;;;;;;25.07;12.77;;;4.40;99.90;;;;;;4227378;28;20012;-61
2023/01/12 07:26:57;;;;;;;22.47;12.63;;;4.40;99.90;;;;;;4226353;28;20318;-62
2023/01/12 07:28:58;;;;;;;25.80;14.37;;;4.40;99.90;;;;;;4227022;28;20159;-60
2023/01/12 07:31:01;;;;;;;24.27;13.13;;;4.40;99.90;;;;;;4226653;28;20324;-62
2023/01/12 07:33:13;;;;;;;36.20;17.80;;;4.40;99.90;;;;;;4227848;28;20256;-65
2023/01/12 07:35:15;;;;;;;29.50;14.80;;;4.40;99.90;;;;;;4227276;28;20353;-63
2023/01/12 07:37:16;;;;;;;37.20;17.70;;;4.40;99.90;;;;;;4230539;28;20268;-61
2023/01/12 07:39:17;;;;;;;25.43;15.07;;;4.50;99.90;;;;;;4229265;28;20276;-62
2023/01/12 07:43:38;;;;;;;30.38;15.80;;;4.50;99.90;;;;;;4228963;28;20081;-61
2023/01/12 07:45:39;;;;;;;32.27;17.13;;;4.50;99.90;;;;;;4230391;28;20032;-61
2023/01/12 07:47:40;;;;;;;34.53;18.13;;;4.60;99.90;;;;;;4228202;28;20047;-62
2023/01/12 07:49:42;;;;;;;32.50;16.97;;;4.60;99.90;;;;;;4230533;28;20167;-63
2023/01/12 07:51:43;;;;;;;30.20;15.50;;;4.60;99.90;;;;;;4228850;28;20081;-61
2023/01/12 07:53:46;;;;;;;33.20;17.70;;;4.70;99.90;;;;;;4230361;28;20276;-62
2023/01/12 07:55:47;;;;;;;37.97;18.83;;;4.70;99.90;;;;;;4229129;28;20077;-61
2023/01/12 07:57:59;;;;;;;59.67;27.50;;;4.70;99.90;;;;;;4229656;28;20077;-61
2023/01/12 08:00:00;;;;;;;64.47;27.20;;;4.70;99.90;;;;;;4229098;28;20076;-62
2023/01/12 08:02:02;;;;;;;33.27;16.67;;;4.80;99.90;;;;;;4230044;28;20092;-63
2023/01/12 08:04:03;;;;;;;43.10;22.60;;;4.80;99.90;;;;;;4229813;28;20024;-61
2023/01/12 08:06:04;;;;;;;36.30;18.27;;;4.80;99.90;;;;;;4228523;28;20458;-62
2023/01/12 08:08:06;;;;;;;31.13;14.37;;;4.80;99.90;;;;;;4229439;28;20069;-61
2023/01/12 08:10:08;;;;;;;30.73;14.63;;;4.90;99.90;;;;;;4229337;28;20031;-62
2023/01/12 08:12:09;;;;;;;26.97;13.80;;;4.90;99.90;;;;;;4230300;28;20127;-61
2023/01/12 08:14:24;;;;;;;24.60;12.73;;;4.90;99.90;;;;;;4228012;28;20016;-60
2023/01/12 08:16:34;;;;;;;26.27;12.27;;;4.90;99.90;;;;;;4229245;28;20041;-60
2023/01/12 08:19:06;;;;;;;20.37;11.47;;;5.00;99.90;;;;;;4229192;28;20049;-62
2023/01/12 08:21:13;;;;;;;25.20;11.67;;;5.00;99.90;;;;;;4228973;28;20093;-62
2023/01/12 08:23:39;;;;;;;22.90;11.47;;;5.00;99.90;;;;;;4229621;28;20044;-60
2023/01/12 08:25:44;;;;;;;20.60;10.80;;;5.00;99.90;;;;;;4229037;28;20076;-62
2023/01/12 08:27:50;;;;;;;21.00;11.43;;;5.00;99.90;;;;;;4229473;28;20686;-61
2023/01/12 08:29:56;;;;;;;21.70;11.23;;;5.10;99.90;;;;;;4229723;28;20031;-60
2023/01/12 08:32:03;;;;;;;20.40;11.87;;;5.10;99.90;;;;;;4228983;28;20174;-61
2023/01/12 08:34:06;;;;;;;24.43;12.63;;;5.10;99.90;;;;;;4212327;28;20070;-62
2023/01/12 08:36:10;;;;;;;26.83;12.23;;;5.10;99.90;;;;;;4211515;28;20122;-61
2023/01/12 08:38:12;;;;;;;24.50;12.37;;;5.20;99.90;;;;;;4212793;28;20372;-60
2023/01/12 08:40:14;;;;;;;26.43;12.67;;;5.20;99.90;;;;;;4211831;28;20077;-61
2023/01/12 08:42:15;;;;;;;26.67;12.43;;;5.20;99.90;;;;;;4214546;28;20116;-61
2023/01/12 08:44:16;;;;;;;28.73;13.30;;;5.20;99.90;;;;;;4228413;28;20479;-61
2023/01/12 08:46:17;;;;;;;27.17;13.73;;;5.30;99.90;;;;;;4228850;28;20055;-64
2023/01/12 08:48:18;;;;;;;28.37;14.63;;;5.30;99.90;;;;;;4226304;28;20104;-63
2023/01/12 08:50:20;;;;;;;26.60;13.40;;;5.30;99.90;;;;;;4228923;28;20035;-61
2023/01/12 08:52:21;;;;;;;31.23;16.07;;;5.30;99.90;;;;;;4227235;28;20031;-61
2023/01/12 08:54:23;;;;;;;31.33;15.00;;;5.20;99.90;;;;;;4229094;28;20472;-61
2023/01/12 08:56:24;;;;;;;29.47;15.30;;;5.20;99.90;;;;;;4226373;28;20032;-60
2023/01/12 08:58:25;;;;;;;33.47;16.00;;;5.20;99.90;;;;;;4228241;28;20023;-61
2023/01/12 09:00:26;;;;;;;31.93;16.77;;;5.20;99.90;;;;;;4228678;28;20072;-62
2023/01/12 09:02:28;;;;;;;30.63;14.47;;;5.20;99.90;;;;;;4229064;28;20035;-62
2023/01/12 09:04:29;;;;;;;26.23;13.03;;;5.30;99.90;;;;;;4228627;28;20580;-61
2023/01/12 09:06:35;;;;;;;25.60;12.90;;;5.30;99.90;;;;;;4228265;28;20039;-61
2023/01/12 09:08:36;;;;;;;26.20;13.67;;;5.40;99.90;;;;;;4228940;28;21545;-61
2023/01/12 09:10:37;;;;;;;26.77;12.50;;;5.40;99.90;;;;;;4228265;28;20035;-61
2023/01/12 09:12:38;;;;;;;27.43;13.03;;;5.40;99.90;;;;;;4227707;28;20466;-61
2023/01/12 09:14:39;;;;;;;25.67;13.23;;;5.40;99.90;;;;;;4227573;28;20023;-59
2023/01/12 09:16:41;;;;;;;26.13;12.33;;;5.40;99.90;;;;;;4229443;28;20081;-62
2023/01/12 09:18:42;;;;;;;28.57;12.57;;;5.40;99.90;;;;;;4228407;28;20784;-61
2023/01/12 09:20:43;;;;;;;26.17;12.73;;;5.40;99.90;;;;;;4229274;28;20108;-62
2023/01/12 09:22:44;;;;;;;31.30;12.33;;;5.50;99.90;;;;;;4227047;28;20032;-61
2023/01/12 09:24:46;;;;;;;29.23;11.60;;;5.50;99.90;;;;;;4229181;28;20088;-61
2023/01/12 09:26:47;;;;;;;23.67;11.87;;;5.50;99.90;;;;;;4228125;28;20036;-61
2023/01/12 09:28:48;;;;;;;23.17;10.87;;;5.40;99.90;;;;;;4228605;28;20100;-64
2023/01/12 09:30:49;;;;;;;23.60;14.27;;;5.50;99.90;;;;;;4228017;28;20023;-62
2023/01/12 09:32:50;;;;;;;25.23;13.53;;;5.50;99.90;;;;;;4228289;28;20144;-62
2023/01/12 09:34:53;;;;;;;20.17;11.17;;;5.50;99.90;;;;;;4227587;28;20056;-62
2023/01/12 09:36:55;;;;;;;16.93;9.60;;;5.60;99.90;;;;;;4227520;28;20031;-62
2023/01/12 09:38:57;;;;;;;21.90;12.70;;;5.60;99.90;;;;;;4228317;28;20024;-61
2023/01/12 09:41:00;;;;;;;27.77;14.10;;;5.70;99.90;;;;;;4226917;28;20439;-61
2023/01/12 09:47:53;;;;;;;18.27;10.57;;;5.90;99.90;;;;;;4228332;28;20317;-59
2023/01/12 09:49:57;;;;;;;18.27;9.07;;;6.00;99.90;;;;;;4217570;28;20044;-64
2023/01/12 09:52:16;;;;;;;12.67;8.07;;;6.00;99.90;;;;;;4227936;28;20043;-61
2023/01/12 09:54:18;;;;;;;14.93;8.03;;;6.10;99.90;;;;;;4227853;28;20019;-61
2023/01/12 09:56:35;;;;;;;13.43;7.57;;;6.10;99.90;;;;;;4226453;28;20047;-60
2023/01/12 09:59:09;;;;;;;15.30;8.53;;;6.10;99.90;;;;;;4225853;28;20092;-60
2023/01/12 10:01:12;;;;;;;19.97;8.73;;;6.10;99.90;;;;;;4196935;28;20113;-61
2023/01/12 10:03:23;;;;;;;17.77;9.20;;;6.20;99.90;;;;;;4227748;28;20064;-62
2023/01/12 10:05:36;;;;;;;13.03;7.37;;;6.20;99.90;;;;;;4219500;28;20387;-60
2023/01/12 10:07:38;;;;;;;16.87;7.90;;;6.20;99.90;;;;;;4228271;28;20540;-62
2023/01/12 10:09:40;;;;;;;13.40;7.20;;;6.10;99.90;;;;;;4226993;28;20076;-61
2023/01/12 10:12:05;;;;;;;14.67;7.97;;;6.10;99.90;;;;;;4227348;28;20088;-63
2023/01/12 10:14:27;;;;;;;14.23;8.13;;;6.10;99.90;;;;;;4226813;28;20019;-63
2023/01/12 10:16:46;;;;;;;11.00;7.37;;;6.00;99.90;;;;;;4216446;28;20046;-60
2023/01/12 10:18:51;;;;;;;15.60;7.67;;;6.00;99.90;;;;;;4226093;28;20074;-61
2023/01/12 10:20:54;;;;;;;18.53;9.10;;;6.00;99.90;;;;;;4227592;28;20076;-60
2023/01/12 10:23:08;;;;;;;17.03;9.17;;;6.00;99.90;;;;;;4225971;28;20032;-62
2023/01/12 10:25:22;;;;;;;16.27;8.50;;;5.90;99.90;;;;;;4228315;28;20027;-62
2023/01/12 10:27:23;;;;;;;17.53;9.97;;;5.90;99.90;;;;;;4226947;28;20027;-61
2023/01/12 10:29:25;;;;;;;14.30;8.43;;;5.90;99.90;;;;;;4227392;28;20043;-61
2023/01/12 10:31:26;;;;;;;17.60;9.90;;;5.90;99.90;;;;;;4226571;28;20092;-60
2023/01/12 10:33:30;;;;;;;19.03;10.17;;;5.90;99.90;;;;;;4226593;28;20069;-62
2023/01/12 10:35:31;;;;;;;19.50;10.30;;;5.80;99.90;;;;;;4227051;28;20043;-60
2023/01/12 10:37:49;;;;;;;20.10;10.00;;;5.90;99.90;;;;;;4225690;28;20031;-59
2023/01/12 10:39:51;;;;;;;17.30;10.17;;;5.90;99.90;;;;;;4209873;28;20106;-61
2023/01/12 10:44:42;;;;;;;19.80;9.20;;;5.90;99.90;;;;;;4225728;28;20178;-62
2023/01/12 10:47:07;;;;;;;21.03;10.67;;;5.90;99.90;;;;;;4227632;28;20028;-63
2023/01/12 10:49:23;;;;;;;20.60;12.17;;;5.90;99.90;;;;;;4226791;28;20043;-58
2023/01/12 10:51:28;;;;;;;17.73;9.23;;;5.90;99.90;;;;;;4227741;28;20039;-60
2023/01/12 10:53:39;;;;;;;19.53;10.13;;;5.90;99.90;;;;;;4225039;28;20489;-61
2023/01/12 10:55:42;;;;;;;20.37;9.10;;;5.90;99.90;;;;;;4228343;28;20024;-63
2023/01/12 10:57:45;;;;;;;17.37;8.87;;;5.90;99.90;;;;;;4226674;28;20380;-60
2023/01/12 10:59:58;;;;;;;19.43;9.80;;;5.90;99.90;;;;;;4227394;28;20048;-60
2023/01/12 11:02:10;;;;;;;20.13;9.83;;;5.90;99.90;;;;;;4225577;28;20108;-60
2023/01/12 11:04:15;;;;;;;26.03;11.83;;;5.90;99.90;;;;;;4226830;28;20097;-62
2023/01/12 11:06:29;;;;;;;25.90;12.20;;;5.90;99.90;;;;;;4226492;28;20109;-61
2023/01/12 11:08:31;;;;;;;22.07;10.77;;;5.90;99.90;;;;;;4226015;28;20418;-61
2023/01/12 11:10:37;;;;;;;24.20;11.83;;;5.90;99.90;;;;;;4229643;28;20039;-61
2023/01/12 11:12:41;;;;;;;27.80;12.43;;;5.90;99.90;;;;;;4230778;28;20417;-62